createdAt,value
2017-07-17T00:00:02.007Z,1015.39
2017-07-17T00:00:57.439Z,1015.37
2017-07-17T00:01:57.083Z,1015.37
2017-07-17T00:02:51.033Z,1015.37
2017-07-17T00:03:52.178Z,1015.32
2017-07-17T00:04:47.192Z,1015.34
2017-07-17T00:05:41.201Z,1015.30
2017-07-17T00:06:30.526Z,1015.30
2017-07-17T00:07:18.255Z,1015.29
2017-07-17T00:08:06.631Z,1015.26
2017-07-17T00:08:55.386Z,1015.25
2017-07-17T00:09:43.362Z,1015.23
2017-07-17T00:10:31.446Z,1015.23
2017-07-17T00:11:20.451Z,1015.24
2017-07-17T00:12:09.704Z,1015.19
2017-07-17T00:12:58.575Z,1015.21
2017-07-17T00:13:52.688Z,1015.20
2017-07-17T00:14:52.715Z,1015.20
2017-07-17T00:15:52.806Z,1015.25
2017-07-17T00:16:47.835Z,1015.20
2017-07-17T00:17:42.189Z,1015.20
2017-07-17T00:18:41.710Z,1015.18
2017-07-17T00:19:36.855Z,1015.11
2017-07-17T00:20:31.892Z,1015.12
2017-07-17T00:21:32.009Z,1015.08
2017-07-17T00:22:26.879Z,1015.10
2017-07-17T00:23:27.039Z,1015.10
2017-07-17T00:24:26.974Z,1015.11
2017-07-17T00:25:27.087Z,1015.12
2017-07-17T00:26:21.225Z,1015.14
2017-07-17T00:27:21.194Z,1015.12
2017-07-17T00:28:16.732Z,1015.12
2017-07-17T00:29:11.215Z,1015.12
2017-07-17T00:30:11.319Z,1015.15
2017-07-17T00:31:06.306Z,1015.13
2017-07-17T00:32:01.426Z,1015.11
2017-07-17T00:33:02.626Z,1015.09
2017-07-17T00:34:02.319Z,1015.12
2017-07-17T00:35:02.566Z,1015.09
2017-07-17T00:35:57.554Z,1015.09
2017-07-17T00:36:51.575Z,1015.11
2017-07-17T00:37:51.607Z,1015.10
2017-07-17T00:38:46.598Z,1015.12
2017-07-17T00:39:46.651Z,1015.10
2017-07-17T00:40:40.675Z,1015.11
2017-07-17T00:41:40.601Z,1015.13
2017-07-17T00:42:35.834Z,1015.14
2017-07-17T00:43:30.796Z,1015.15
2017-07-17T00:44:30.973Z,1015.12
2017-07-17T00:45:25.885Z,1015.11
2017-07-17T00:46:25.896Z,1015.10
2017-07-17T00:47:25.932Z,1015.12
2017-07-17T00:48:25.957Z,1015.12
2017-07-17T00:49:20.041Z,1015.14
2017-07-17T00:50:20.019Z,1015.14
2017-07-17T00:51:15.177Z,1015.18
2017-07-17T00:52:10.746Z,1015.13
2017-07-17T00:53:11.194Z,1015.15
2017-07-17T00:54:11.124Z,1015.11
2017-07-17T00:55:11.282Z,1015.12
2017-07-17T00:55:59.355Z,1015.15
2017-07-17T00:56:47.407Z,1015.15
2017-07-17T00:57:48.359Z,1015.13
2017-07-17T00:58:37.375Z,1015.14
2017-07-17T00:59:25.536Z,1015.08
2017-07-17T01:00:13.457Z,1015.11
2017-07-17T01:01:01.655Z,1015.12
2017-07-17T01:01:50.613Z,1015.14
2017-07-17T01:02:38.626Z,1015.17
2017-07-17T01:03:27.727Z,1015.15
2017-07-17T01:04:15.783Z,1015.18
2017-07-17T01:05:03.717Z,1015.18
2017-07-17T01:05:52.871Z,1015.18
2017-07-17T01:06:40.881Z,1015.16
2017-07-17T01:07:28.938Z,1015.20
2017-07-17T01:08:17.381Z,1015.21
2017-07-17T01:09:06.257Z,1015.20
2017-07-17T01:09:54.090Z,1015.21
2017-07-17T01:10:43.142Z,1015.22
2017-07-17T01:11:31.185Z,1015.22
2017-07-17T01:12:25.226Z,1015.22
2017-07-17T01:13:14.321Z,1015.25
2017-07-17T01:14:08.230Z,1015.30
2017-07-17T01:15:02.261Z,1015.26
2017-07-17T01:15:56.359Z,1015.27
2017-07-17T01:16:51.393Z,1015.26
2017-07-17T01:17:45.494Z,1015.27
2017-07-17T01:18:45.368Z,1015.23
2017-07-17T01:19:39.533Z,1015.15
2017-07-17T01:20:28.594Z,1015.22
2017-07-17T01:21:16.697Z,1015.20
2017-07-17T01:22:04.696Z,1015.21
2017-07-17T01:22:58.668Z,1015.21
2017-07-17T01:23:58.708Z,1015.22
2017-07-17T01:24:58.744Z,1015.19
2017-07-17T01:25:47.822Z,1015.24
2017-07-17T01:26:41.896Z,1015.20
2017-07-17T01:27:30.901Z,1015.21
2017-07-17T01:28:19.447Z,1015.17
2017-07-17T01:29:20.011Z,1015.15
2017-07-17T01:30:14.041Z,1015.13
2017-07-17T01:31:14.070Z,1015.13
2017-07-17T01:32:09.070Z,1015.13
2017-07-17T01:33:04.353Z,1015.13
2017-07-17T01:33:59.103Z,1015.11
2017-07-17T01:34:53.241Z,1015.13
2017-07-17T01:35:42.268Z,1015.10
2017-07-17T01:36:37.313Z,1015.13
2017-07-17T01:37:38.312Z,1015.11
2017-07-17T01:38:33.854Z,1015.13
2017-07-17T01:39:27.366Z,1015.12
2017-07-17T01:40:27.433Z,1015.13
2017-07-17T01:41:22.572Z,1015.15
2017-07-17T01:42:22.516Z,1015.15
2017-07-17T01:43:16.587Z,1015.12
2017-07-17T01:44:16.542Z,1015.13
2017-07-17T01:45:11.674Z,1015.12
2017-07-17T01:46:06.599Z,1015.13
2017-07-17T01:47:07.712Z,1015.14
2017-07-17T01:48:08.781Z,1015.16
2017-07-17T01:49:03.690Z,1015.13
2017-07-17T01:49:57.730Z,1015.12
2017-07-17T01:50:57.857Z,1015.09
2017-07-17T01:51:52.864Z,1015.10
2017-07-17T01:52:52.997Z,1015.10
2017-07-17T01:53:41.346Z,1015.12
2017-07-17T01:54:30.170Z,1015.15
2017-07-17T01:55:18.149Z,1015.11
2017-07-17T01:56:07.160Z,1015.10
2017-07-17T01:56:55.151Z,1015.12
2017-07-17T01:57:50.158Z,1015.14
2017-07-17T01:58:39.656Z,1015.13
2017-07-17T01:59:27.249Z,1015.10
2017-07-17T02:00:16.299Z,1015.13
2017-07-17T02:01:16.442Z,1015.16
2017-07-17T02:02:10.399Z,1015.13
2017-07-17T02:03:10.478Z,1015.12
2017-07-17T02:04:05.462Z,1015.11
2017-07-17T02:05:00.518Z,1015.11
2017-07-17T02:06:00.498Z,1015.11
2017-07-17T02:06:55.566Z,1015.12
2017-07-17T02:07:43.594Z,1015.13
2017-07-17T02:08:38.185Z,1015.11
2017-07-17T02:09:26.738Z,1015.13
2017-07-17T02:10:26.741Z,1015.14
2017-07-17T02:11:21.806Z,1015.16
2017-07-17T02:12:21.806Z,1015.11
2017-07-17T02:13:21.912Z,1015.14
2017-07-17T02:14:21.906Z,1015.10
2017-07-17T02:15:17.050Z,1015.12
2017-07-17T02:16:11.948Z,1015.11
2017-07-17T02:17:11.953Z,1015.07
2017-07-17T02:18:07.030Z,1015.08
2017-07-17T02:19:02.142Z,1015.09
2017-07-17T02:20:02.120Z,1015.08
2017-07-17T02:20:57.152Z,1015.09
2017-07-17T02:21:46.203Z,1015.06
2017-07-17T02:22:46.210Z,1015.07
2017-07-17T02:23:41.738Z,1015.08
2017-07-17T02:24:35.318Z,1015.05
2017-07-17T02:25:23.409Z,1015.06
2017-07-17T02:26:17.646Z,1015.08
2017-07-17T02:27:11.389Z,1015.07
2017-07-17T02:28:06.513Z,1015.13
2017-07-17T02:29:06.503Z,1015.10
2017-07-17T02:30:01.626Z,1015.13
2017-07-17T02:30:56.638Z,1015.14
2017-07-17T02:31:57.604Z,1015.12
2017-07-17T02:32:58.709Z,1015.15
2017-07-17T02:33:58.685Z,1015.13
2017-07-17T02:34:59.788Z,1015.14
2017-07-17T02:36:00.848Z,1015.09
2017-07-17T02:36:54.860Z,1015.12
2017-07-17T02:37:42.809Z,1015.11
2017-07-17T02:38:32.204Z,1015.08
2017-07-17T02:39:19.959Z,1015.10
2017-07-17T02:40:14.033Z,1015.09
2017-07-17T02:41:03.100Z,1015.10
2017-07-17T02:41:58.193Z,1015.12
2017-07-17T02:42:58.305Z,1015.08
2017-07-17T02:43:52.172Z,1015.08
2017-07-17T02:44:46.175Z,1015.12
2017-07-17T02:45:46.269Z,1015.12
2017-07-17T02:46:46.349Z,1015.09
2017-07-17T02:47:41.308Z,1015.11
2017-07-17T02:48:29.384Z,1015.14
2017-07-17T02:49:29.378Z,1015.12
2017-07-17T02:50:23.441Z,1015.12
2017-07-17T02:51:17.530Z,1015.15
2017-07-17T02:52:11.490Z,1015.13
2017-07-17T02:53:00.839Z,1015.14
2017-07-17T02:53:54.567Z,1015.17
2017-07-17T02:54:42.697Z,1015.18
2017-07-17T02:55:36.733Z,1015.16
2017-07-17T02:56:30.933Z,1015.18
2017-07-17T02:57:24.820Z,1015.15
2017-07-17T02:58:24.814Z,1015.16
2017-07-17T02:59:18.855Z,1015.13
2017-07-17T03:00:07.829Z,1015.12
2017-07-17T03:00:56.996Z,1015.12
2017-07-17T03:01:51.035Z,1015.08
2017-07-17T03:02:50.994Z,1015.07
2017-07-17T03:03:45.002Z,1015.11
2017-07-17T03:04:39.129Z,1015.11
2017-07-17T03:05:27.148Z,1015.11
2017-07-17T03:06:16.275Z,1015.12
2017-07-17T03:07:05.202Z,1015.11
2017-07-17T03:07:54.735Z,1015.13
2017-07-17T03:08:49.329Z,1015.10
2017-07-17T03:09:49.376Z,1015.10
2017-07-17T03:10:49.414Z,1015.08
2017-07-17T03:11:37.469Z,1015.08
2017-07-17T03:12:37.427Z,1015.08
2017-07-17T03:13:31.510Z,1015.05
2017-07-17T03:14:25.620Z,1015.02
2017-07-17T03:15:20.678Z,1015.10
2017-07-17T03:16:20.607Z,1015.05
2017-07-17T03:17:14.687Z,1015.00
2017-07-17T03:18:14.753Z,1014.96
2017-07-17T03:19:03.716Z,1014.97
2017-07-17T03:19:57.780Z,1014.99
2017-07-17T03:20:52.922Z,1015.02
2017-07-17T03:21:52.885Z,1015.03
2017-07-17T03:22:52.851Z,1015.06
2017-07-17T03:23:46.944Z,1015.03
2017-07-17T03:24:40.912Z,1014.99
2017-07-17T03:25:40.953Z,1015.03
2017-07-17T03:26:36.164Z,1015.03
2017-07-17T03:27:30.061Z,1015.07
2017-07-17T03:28:24.111Z,1015.04
2017-07-17T03:29:24.241Z,1015.03
2017-07-17T03:30:19.197Z,1015.05
2017-07-17T03:31:13.222Z,1015.06
2017-07-17T03:32:01.418Z,1015.10
2017-07-17T03:32:50.393Z,1015.09
2017-07-17T03:33:50.441Z,1015.12
2017-07-17T03:34:38.404Z,1015.10
2017-07-17T03:35:32.438Z,1015.13
2017-07-17T03:36:26.434Z,1015.08
2017-07-17T03:37:26.627Z,1015.14
2017-07-17T03:38:20.616Z,1015.17
2017-07-17T03:39:15.564Z,1015.16
2017-07-17T03:40:09.683Z,1015.20
2017-07-17T03:40:58.691Z,1015.17
2017-07-17T03:41:52.806Z,1015.23
2017-07-17T03:42:40.808Z,1015.21
2017-07-17T03:43:34.986Z,1015.25
2017-07-17T03:44:35.951Z,1015.24
2017-07-17T03:45:29.848Z,1015.21
2017-07-17T03:46:18.898Z,1015.26
2017-07-17T03:47:13.937Z,1015.22
2017-07-17T03:48:15.039Z,1015.27
2017-07-17T03:49:09.087Z,1015.24
2017-07-17T03:50:04.028Z,1015.25
2017-07-17T03:50:58.125Z,1015.26
2017-07-17T03:51:59.154Z,1015.25
2017-07-17T03:52:53.196Z,1015.30
2017-07-17T03:53:47.205Z,1015.33
2017-07-17T03:54:35.416Z,1015.34
2017-07-17T03:55:23.348Z,1015.29
2017-07-17T03:56:24.427Z,1015.37
2017-07-17T03:57:13.501Z,1015.35
2017-07-17T03:58:08.482Z,1015.38
2017-07-17T03:58:56.684Z,1015.40
2017-07-17T03:59:56.568Z,1015.38
2017-07-17T04:00:51.648Z,1015.43
2017-07-17T04:01:45.695Z,1015.48
2017-07-17T04:02:40.712Z,1015.47
2017-07-17T04:03:41.695Z,1015.46
2017-07-17T04:04:36.806Z,1015.48
2017-07-17T04:05:36.859Z,1015.47
2017-07-17T04:06:31.806Z,1015.47
2017-07-17T04:07:26.827Z,1015.48
2017-07-17T04:08:26.966Z,1015.50
2017-07-17T04:09:21.042Z,1015.52
2017-07-17T04:10:09.988Z,1015.51
2017-07-17T04:11:04.095Z,1015.54
2017-07-17T04:11:58.105Z,1015.52
2017-07-17T04:12:58.561Z,1015.55
2017-07-17T04:13:52.139Z,1015.54
2017-07-17T04:14:40.254Z,1015.56
2017-07-17T04:15:34.283Z,1015.52
2017-07-17T04:16:29.317Z,1015.51
2017-07-17T04:17:23.306Z,1015.51
2017-07-17T04:18:17.353Z,1015.48
2017-07-17T04:19:06.416Z,1015.48
2017-07-17T04:20:00.428Z,1015.45
2017-07-17T04:20:55.537Z,1015.39
2017-07-17T04:21:50.443Z,1015.39
2017-07-17T04:22:39.532Z,1015.42
2017-07-17T04:23:33.612Z,1015.45
2017-07-17T04:24:28.688Z,1015.47
2017-07-17T04:25:22.643Z,1015.46
2017-07-17T04:26:16.760Z,1015.45
2017-07-17T04:27:04.797Z,1015.49
2017-07-17T04:28:05.394Z,1015.50
2017-07-17T04:28:58.969Z,1015.50
2017-07-17T04:29:53.893Z,1015.50
2017-07-17T04:30:42.036Z,1015.48
2017-07-17T04:31:41.984Z,1015.52
2017-07-17T04:32:35.953Z,1015.55
2017-07-17T04:33:36.131Z,1015.54
2017-07-17T04:34:36.165Z,1015.54
2017-07-17T04:35:30.182Z,1015.57
2017-07-17T04:36:31.133Z,1015.52
2017-07-17T04:37:25.228Z,1015.49
2017-07-17T04:38:25.297Z,1015.47
2017-07-17T04:39:20.342Z,1015.50
2017-07-17T04:40:14.370Z,1015.51
2017-07-17T04:41:09.360Z,1015.54
2017-07-17T04:42:09.515Z,1015.55
2017-07-17T04:42:58.956Z,1015.54
2017-07-17T04:43:52.464Z,1015.59
2017-07-17T04:44:52.587Z,1015.58
2017-07-17T04:45:41.532Z,1015.59
2017-07-17T04:46:29.634Z,1015.58
2017-07-17T04:47:30.713Z,1015.53
2017-07-17T04:48:19.675Z,1015.53
2017-07-17T04:49:19.777Z,1015.51
2017-07-17T04:50:13.760Z,1015.57
2017-07-17T04:51:14.816Z,1015.58
2017-07-17T04:52:14.922Z,1015.56
2017-07-17T04:53:03.372Z,1015.62
2017-07-17T04:53:51.141Z,1015.59
2017-07-17T04:54:40.137Z,1015.62
2017-07-17T04:55:28.102Z,1015.62
2017-07-17T04:56:22.093Z,1015.67
2017-07-17T04:57:10.124Z,1015.69
2017-07-17T04:57:58.638Z,1015.67
2017-07-17T04:58:52.376Z,1015.67
2017-07-17T04:59:52.270Z,1015.72
2017-07-17T05:00:47.232Z,1015.73
2017-07-17T05:01:41.355Z,1015.75
2017-07-17T05:02:41.380Z,1015.78
2017-07-17T05:03:41.432Z,1015.83
2017-07-17T05:04:41.485Z,1015.81
2017-07-17T05:05:41.468Z,1015.78
2017-07-17T05:06:30.532Z,1015.84
2017-07-17T05:07:19.512Z,1015.84
2017-07-17T05:08:08.537Z,1015.76
2017-07-17T05:08:56.703Z,1015.77
2017-07-17T05:09:50.774Z,1015.77
2017-07-17T05:10:50.699Z,1015.79
2017-07-17T05:11:39.806Z,1015.80
2017-07-17T05:12:33.798Z,1015.79
2017-07-17T05:13:22.914Z,1015.79
2017-07-17T05:14:23.040Z,1015.82
2017-07-17T05:15:17.952Z,1015.83
2017-07-17T05:16:11.997Z,1015.86
2017-07-17T05:17:07.042Z,1015.96
2017-07-17T05:18:08.176Z,1015.90
2017-07-17T05:19:02.113Z,1015.86
2017-07-17T05:19:56.226Z,1015.86
2017-07-17T05:20:56.374Z,1015.83
2017-07-17T05:21:44.293Z,1015.90
2017-07-17T05:22:32.348Z,1015.89
2017-07-17T05:23:26.353Z,1015.90
2017-07-17T05:24:26.362Z,1015.94
2017-07-17T05:25:20.482Z,1015.91
2017-07-17T05:26:15.535Z,1015.89
2017-07-17T05:27:04.550Z,1015.88
2017-07-17T05:28:05.063Z,1015.86
2017-07-17T05:29:04.616Z,1015.84
2017-07-17T05:29:52.702Z,1015.87
2017-07-17T05:30:40.681Z,1015.88
2017-07-17T05:31:34.940Z,1015.85
2017-07-17T05:32:28.738Z,1015.79
2017-07-17T05:33:22.836Z,1015.85
2017-07-17T05:34:17.849Z,1015.88
2017-07-17T05:35:11.801Z,1015.93
2017-07-17T05:36:11.977Z,1015.93
2017-07-17T05:37:06.995Z,1015.92
2017-07-17T05:38:01.530Z,1015.97
2017-07-17T05:38:55.048Z,1015.97
2017-07-17T05:39:49.208Z,1015.98
2017-07-17T05:40:43.186Z,1015.94
2017-07-17T05:41:44.108Z,1015.97
2017-07-17T05:42:38.296Z,1015.95
2017-07-17T05:43:38.800Z,1015.93
2017-07-17T05:44:27.332Z,1015.95
2017-07-17T05:45:16.440Z,1015.99
2017-07-17T05:46:11.518Z,1015.97
2017-07-17T05:47:05.479Z,1015.99
2017-07-17T05:48:00.968Z,1016.00
2017-07-17T05:49:01.580Z,1016.01
2017-07-17T05:49:56.666Z,1016.12
2017-07-17T05:50:50.725Z,1016.12
2017-07-17T05:51:44.720Z,1016.15
2017-07-17T05:52:45.669Z,1016.08
2017-07-17T05:53:39.757Z,1016.02
2017-07-17T05:54:27.774Z,1016.07
2017-07-17T05:55:21.805Z,1016.07
2017-07-17T05:56:10.873Z,1016.10
2017-07-17T05:57:00.034Z,1016.09
2017-07-17T05:58:00.472Z,1016.09
2017-07-17T05:58:49.235Z,1016.14
2017-07-17T05:59:44.036Z,1016.18
2017-07-17T06:00:39.276Z,1016.22
2017-07-17T06:01:33.247Z,1016.24
2017-07-17T06:02:22.288Z,1016.27
2017-07-17T06:03:17.346Z,1016.24
2017-07-17T06:04:12.378Z,1016.27
2017-07-17T06:05:01.346Z,1016.30
2017-07-17T06:05:55.781Z,1016.33
2017-07-17T06:06:50.445Z,1016.37
2017-07-17T06:07:45.542Z,1016.39
2017-07-17T06:08:39.632Z,1016.37
2017-07-17T06:09:33.574Z,1016.35
2017-07-17T06:10:22.620Z,1016.41
2017-07-17T06:11:16.622Z,1016.43
2017-07-17T06:12:05.672Z,1016.42
2017-07-17T06:13:00.205Z,1016.38
2017-07-17T06:13:53.857Z,1016.36
2017-07-17T06:14:42.860Z,1016.37
2017-07-17T06:15:37.873Z,1016.51
2017-07-17T06:16:37.875Z,1016.43
2017-07-17T06:17:26.072Z,1016.46
2017-07-17T06:18:19.982Z,1016.40
2017-07-17T06:19:08.080Z,1016.42
2017-07-17T06:20:09.122Z,1016.41
2017-07-17T06:21:09.216Z,1016.46
2017-07-17T06:22:04.169Z,1016.44
2017-07-17T06:22:58.346Z,1016.43
2017-07-17T06:23:47.336Z,1016.45
2017-07-17T06:24:41.330Z,1016.48
2017-07-17T06:25:41.525Z,1016.47
2017-07-17T06:26:41.540Z,1016.47
2017-07-17T06:27:35.613Z,1016.47
2017-07-17T06:28:29.883Z,1016.37
2017-07-17T06:29:24.744Z,1016.44
2017-07-17T06:30:25.106Z,1016.42
2017-07-17T06:31:14.191Z,1016.43
2017-07-17T06:32:08.097Z,1016.44
2017-07-17T06:33:08.222Z,1016.47
2017-07-17T06:33:57.093Z,1016.42
2017-07-17T06:34:46.367Z,1016.39
2017-07-17T06:35:35.222Z,1016.35
2017-07-17T06:36:30.422Z,1016.37
2017-07-17T06:37:30.116Z,1016.39
2017-07-17T06:38:19.168Z,1016.42
2017-07-17T06:39:08.334Z,1016.40
2017-07-17T06:40:03.244Z,1016.44
2017-07-17T06:40:51.238Z,1016.47
2017-07-17T06:41:39.571Z,1016.47
2017-07-17T06:42:33.485Z,1016.52
2017-07-17T06:43:28.567Z,1016.56
2017-07-17T06:44:22.591Z,1016.53
2017-07-17T06:45:16.605Z,1016.51
2017-07-17T06:46:11.544Z,1016.54
2017-07-17T06:47:06.743Z,1016.56
2017-07-17T06:48:01.160Z,1016.72
2017-07-17T06:49:00.840Z,1016.60
2017-07-17T06:49:54.823Z,1016.56
2017-07-17T06:50:43.881Z,1016.63
2017-07-17T06:51:43.907Z,1016.59
2017-07-17T06:52:38.296Z,1016.59
2017-07-17T06:53:32.048Z,1016.63
2017-07-17T06:54:32.360Z,1016.78
2017-07-17T06:55:26.110Z,1016.71
2017-07-17T06:56:27.046Z,1016.67
2017-07-17T06:57:16.196Z,1016.68
2017-07-17T06:58:05.734Z,1016.63
2017-07-17T06:58:59.390Z,1016.44
2017-07-17T06:59:59.428Z,1016.46
2017-07-17T07:00:53.483Z,1016.44
2017-07-17T07:01:48.537Z,1016.48
2017-07-17T07:02:37.435Z,1016.53
2017-07-17T07:03:32.727Z,1016.51
2017-07-17T07:04:26.672Z,1016.56
2017-07-17T07:05:21.725Z,1016.72
2017-07-17T07:06:15.657Z,1016.67
2017-07-17T07:07:10.724Z,1016.48
2017-07-17T07:08:05.254Z,1016.52
2017-07-17T07:08:58.885Z,1016.55
2017-07-17T07:09:53.923Z,1016.52
2017-07-17T07:10:53.951Z,1016.58
2017-07-17T07:11:54.336Z,1016.62
2017-07-17T07:12:42.960Z,1016.77
2017-07-17T07:13:37.125Z,1016.54
2017-07-17T07:14:26.198Z,1016.55
2017-07-17T07:15:15.169Z,1016.60
2017-07-17T07:16:15.271Z,1016.60
2017-07-17T07:17:09.335Z,1016.63
2017-07-17T07:17:58.337Z,1016.64
2017-07-17T07:18:53.430Z,1016.66
2017-07-17T07:19:47.472Z,1016.57
2017-07-17T07:20:35.436Z,1016.65
2017-07-17T07:21:35.496Z,1016.74
2017-07-17T07:22:24.900Z,1016.77
2017-07-17T07:23:24.684Z,1016.62
2017-07-17T07:24:24.742Z,1016.62
2017-07-17T07:25:18.862Z,1016.59
2017-07-17T07:26:18.812Z,1016.65
2017-07-17T07:27:12.839Z,1016.76
2017-07-17T07:28:13.254Z,1016.85
2017-07-17T07:29:02.248Z,1016.83
2017-07-17T07:29:56.994Z,1016.87
2017-07-17T07:30:57.048Z,1016.83
2017-07-17T07:31:52.106Z,1016.77
2017-07-17T07:32:46.160Z,1016.79
2017-07-17T07:33:46.314Z,1016.77
2017-07-17T07:34:46.395Z,1016.59
2017-07-17T07:35:41.567Z,1016.79
2017-07-17T07:36:35.712Z,1016.84
2017-07-17T07:37:30.414Z,1016.61
2017-07-17T07:38:24.823Z,1016.68
2017-07-17T07:39:18.559Z,1016.66
2017-07-17T07:40:06.701Z,1016.76
2017-07-17T07:41:01.875Z,1016.92
2017-07-17T07:41:55.772Z,1016.69
2017-07-17T07:42:45.188Z,1016.81
2017-07-17T07:43:39.824Z,1016.84
2017-07-17T07:44:33.881Z,1016.88
2017-07-17T07:45:28.915Z,1016.87
2017-07-17T07:46:18.277Z,1016.83
2017-07-17T07:47:12.217Z,1016.88
2017-07-17T07:48:01.433Z,1016.81
2017-07-17T07:49:02.509Z,1016.79
2017-07-17T07:49:51.274Z,1016.80
2017-07-17T07:50:45.628Z,1016.80
2017-07-17T07:51:39.749Z,1016.81
2017-07-17T07:52:27.751Z,1016.80
2017-07-17T07:53:21.785Z,1016.77
2017-07-17T07:54:21.906Z,1016.80
2017-07-17T07:55:15.942Z,1016.84
2017-07-17T07:56:10.045Z,1016.83
2017-07-17T07:56:59.094Z,1016.83
2017-07-17T07:57:53.255Z,1016.76
2017-07-17T07:58:47.308Z,1016.79
2017-07-17T07:59:41.355Z,1016.78
2017-07-17T08:00:41.445Z,1016.77
2017-07-17T08:01:35.449Z,1016.76
2017-07-17T08:02:30.550Z,1016.77
2017-07-17T08:03:24.669Z,1016.78
2017-07-17T08:04:13.624Z,1016.78
2017-07-17T08:05:01.729Z,1016.75
2017-07-17T08:06:01.828Z,1016.75
2017-07-17T08:06:56.903Z,1016.72
2017-07-17T08:07:45.931Z,1016.73
2017-07-17T08:08:41.377Z,1016.71
2017-07-17T08:09:36.060Z,1016.71
2017-07-17T08:10:30.162Z,1016.75
2017-07-17T08:11:31.195Z,1016.79
2017-07-17T08:12:32.200Z,1016.84
2017-07-17T08:13:26.362Z,1016.84
2017-07-17T08:14:20.440Z,1016.75
2017-07-17T08:15:14.408Z,1016.77
2017-07-17T08:16:08.574Z,1016.83
2017-07-17T08:17:08.520Z,1016.80
2017-07-17T08:18:02.482Z,1016.66
2017-07-17T08:19:02.651Z,1016.84
2017-07-17T08:19:56.991Z,1016.77
2017-07-17T08:20:56.815Z,1016.79
2017-07-17T08:21:45.849Z,1016.72
2017-07-17T08:22:39.890Z,1016.79
2017-07-17T08:23:28.933Z,1016.65
2017-07-17T08:24:23.110Z,1016.71
2017-07-17T08:25:17.178Z,1016.84
2017-07-17T08:26:11.174Z,1016.77
2017-07-17T08:27:00.280Z,1016.65
2017-07-17T08:27:49.305Z,1016.69
2017-07-17T08:28:37.377Z,1016.68
2017-07-17T08:29:32.524Z,1016.60
2017-07-17T08:30:20.501Z,1016.60
2017-07-17T08:31:14.624Z,1016.67
2017-07-17T08:32:03.706Z,1016.72
2017-07-17T08:32:51.731Z,1016.80
2017-07-17T08:33:39.750Z,1016.82
2017-07-17T08:34:34.712Z,1016.61
2017-07-17T08:35:34.929Z,1016.97
2017-07-17T08:36:29.912Z,1016.72
2017-07-17T08:37:19.057Z,1016.68
2017-07-17T08:38:07.056Z,1016.66
2017-07-17T08:39:06.723Z,1016.68
2017-07-17T08:40:01.192Z,1017.02
2017-07-17T08:40:56.311Z,1016.70
2017-07-17T08:41:50.221Z,1016.72
2017-07-17T08:42:38.441Z,1016.71
2017-07-17T08:43:32.329Z,1016.71
2017-07-17T08:44:20.073Z,1016.77
2017-07-17T08:45:14.551Z,1016.69
2017-07-17T08:46:09.688Z,1016.69
2017-07-17T08:47:03.697Z,1016.74
2017-07-17T08:47:52.685Z,1016.80
2017-07-17T08:48:46.852Z,1016.79
2017-07-17T08:49:46.794Z,1016.76
2017-07-17T08:50:40.945Z,1016.76
2017-07-17T08:51:30.284Z,1016.82
2017-07-17T08:52:18.059Z,1016.78
2017-07-17T08:53:07.236Z,1016.85
2017-07-17T08:53:55.228Z,1016.82
2017-07-17T08:54:49.163Z,1016.82
2017-07-17T08:55:50.296Z,1016.82
2017-07-17T08:56:50.406Z,1016.81
2017-07-17T08:57:39.373Z,1016.82
2017-07-17T08:58:28.497Z,1016.76
2017-07-17T08:59:28.638Z,1016.79
2017-07-17T09:00:23.539Z,1016.79
2017-07-17T09:01:18.701Z,1016.69
2017-07-17T09:02:08.131Z,1016.84
2017-07-17T09:03:01.706Z,1016.75
2017-07-17T09:03:56.777Z,1016.81
2017-07-17T09:04:51.944Z,1016.61
2017-07-17T09:05:40.929Z,1016.94
2017-07-17T09:06:29.020Z,1016.86
2017-07-17T09:07:18.126Z,1016.85
2017-07-17T09:08:13.158Z,1016.83
2017-07-17T09:09:07.238Z,1016.60
2017-07-17T09:09:56.145Z,1016.61
2017-07-17T09:10:50.307Z,1016.78
2017-07-17T09:11:50.422Z,1016.76
2017-07-17T09:12:38.541Z,1016.76
2017-07-17T09:13:33.496Z,1016.74
2017-07-17T09:14:27.635Z,1016.72
2017-07-17T09:15:21.656Z,1016.70
2017-07-17T09:16:21.795Z,1016.78
2017-07-17T09:17:15.892Z,1016.76
2017-07-17T09:18:16.924Z,1016.70
2017-07-17T09:19:16.865Z,1016.64
2017-07-17T09:20:05.018Z,1016.66
2017-07-17T09:20:58.976Z,1016.59
2017-07-17T09:21:54.138Z,1016.56
2017-07-17T09:22:43.082Z,1016.56
2017-07-17T09:23:37.176Z,1016.52
2017-07-17T09:24:37.172Z,1016.54
2017-07-17T09:25:38.447Z,1016.48
2017-07-17T09:26:38.414Z,1016.54
2017-07-17T09:27:32.516Z,1016.57
2017-07-17T09:28:32.605Z,1016.48
2017-07-17T09:29:22.020Z,1016.44
2017-07-17T09:30:16.725Z,1016.47
2017-07-17T09:31:11.764Z,1016.44
2017-07-17T09:32:06.905Z,1016.44
2017-07-17T09:33:01.887Z,1016.52
2017-07-17T09:33:50.998Z,1016.50
2017-07-17T09:34:46.144Z,1016.53
2017-07-17T09:35:34.083Z,1016.55
2017-07-17T09:36:22.169Z,1016.48
2017-07-17T09:37:22.188Z,1016.53
2017-07-17T09:38:17.266Z,1016.47
2017-07-17T09:39:06.409Z,1016.54
2017-07-17T09:40:00.419Z,1016.51
2017-07-17T09:40:49.589Z,1016.53
2017-07-17T09:41:49.483Z,1016.53
2017-07-17T09:42:43.571Z,1016.48
2017-07-17T09:43:38.705Z,1016.55
2017-07-17T09:44:32.752Z,1016.55
2017-07-17T09:45:27.167Z,1016.54
2017-07-17T09:46:21.806Z,1016.51
2017-07-17T09:47:21.897Z,1016.52
2017-07-17T09:48:16.305Z,1016.51
2017-07-17T09:49:16.067Z,1016.52
2017-07-17T09:50:05.119Z,1016.54
2017-07-17T09:50:59.257Z,1016.53
2017-07-17T09:52:00.393Z,1016.53
2017-07-17T09:52:49.346Z,1016.54
2017-07-17T09:53:43.332Z,1016.50
2017-07-17T09:54:43.422Z,1016.65
2017-07-17T09:55:32.411Z,1016.55
2017-07-17T09:56:21.640Z,1016.63
2017-07-17T09:57:09.624Z,1016.63
2017-07-17T09:58:04.874Z,1016.62
2017-07-17T09:58:59.763Z,1016.59
2017-07-17T09:59:53.854Z,1016.63
2017-07-17T10:00:41.838Z,1016.56
2017-07-17T10:01:41.906Z,1016.48
2017-07-17T10:02:36.031Z,1016.53
2017-07-17T10:03:31.028Z,1016.52
2017-07-17T10:04:25.153Z,1016.50
2017-07-17T10:05:13.224Z,1016.49
2017-07-17T10:06:07.269Z,1016.52
2017-07-17T10:06:56.346Z,1016.49
2017-07-17T10:07:50.363Z,1016.51
2017-07-17T10:08:38.426Z,1016.53
2017-07-17T10:09:33.480Z,1016.51
2017-07-17T10:10:33.651Z,1016.50
2017-07-17T10:11:28.712Z,1016.57
2017-07-17T10:12:23.897Z,1016.55
2017-07-17T10:13:17.800Z,1016.59
2017-07-17T10:14:05.912Z,1016.55
2017-07-17T10:14:59.968Z,1016.55
2017-07-17T10:15:54.964Z,1016.51
2017-07-17T10:16:43.090Z,1016.57
2017-07-17T10:17:37.553Z,1016.55
2017-07-17T10:18:37.218Z,1016.54
2017-07-17T10:19:26.281Z,1016.58
2017-07-17T10:20:20.320Z,1016.59
2017-07-17T10:21:14.386Z,1016.61
2017-07-17T10:22:02.371Z,1016.61
2017-07-17T10:23:02.572Z,1016.64
2017-07-17T10:23:56.474Z,1016.60
2017-07-17T10:24:51.641Z,1016.59
2017-07-17T10:25:51.610Z,1016.59
2017-07-17T10:26:40.678Z,1016.57
2017-07-17T10:27:29.890Z,1016.58
2017-07-17T10:28:17.959Z,1016.56
2017-07-17T10:29:12.988Z,1016.57
2017-07-17T10:30:07.023Z,1016.56
2017-07-17T10:31:01.092Z,1016.55
2017-07-17T10:31:56.138Z,1016.58
2017-07-17T10:32:56.220Z,1016.56
2017-07-17T10:33:50.288Z,1016.52
2017-07-17T10:34:44.334Z,1016.54
2017-07-17T10:35:39.422Z,1016.57
2017-07-17T10:36:27.447Z,1016.52
2017-07-17T10:37:21.540Z,1016.52
2017-07-17T10:38:10.580Z,1016.58
2017-07-17T10:39:00.087Z,1016.49
2017-07-17T10:39:53.798Z,1016.55
2017-07-17T10:40:48.815Z,1016.58
2017-07-17T10:41:37.849Z,1016.54
2017-07-17T10:42:31.936Z,1016.53
2017-07-17T10:43:21.036Z,1016.58
2017-07-17T10:44:15.295Z,1016.60
2017-07-17T10:45:04.188Z,1016.57
2017-07-17T10:45:58.216Z,1016.55
2017-07-17T10:46:58.182Z,1016.64
2017-07-17T10:47:52.290Z,1016.60
2017-07-17T10:48:52.408Z,1016.52
2017-07-17T10:49:47.542Z,1016.52
2017-07-17T10:50:42.520Z,1016.50
2017-07-17T10:51:42.571Z,1016.57
2017-07-17T10:52:31.633Z,1016.53
2017-07-17T10:53:25.748Z,1016.50
2017-07-17T10:54:19.767Z,1016.56
2017-07-17T10:55:07.967Z,1016.56